createdAt,value
2019-05-10T00:00:30.053Z,62.50
2019-05-10T00:03:19.729Z,61.90
2019-05-10T00:06:09.155Z,53.27
2019-05-10T00:08:45.786Z,50.77
2019-05-10T00:11:41.374Z,38.73
2019-05-10T00:14:39.113Z,46.47
2019-05-10T00:17:20.823Z,46.80
2019-05-10T00:19:52.963Z,48.93
2019-05-10T00:22:24.844Z,52.23
2019-05-10T00:25:03.988Z,58.77
2019-05-10T00:27:30.417Z,50.07
2019-05-10T00:30:02.325Z,49.47
2019-05-10T00:32:35.428Z,48.23
2019-05-10T00:35:07.518Z,54.73
2019-05-10T00:37:39.393Z,54.77
2019-05-10T00:40:11.224Z,57.23
2019-05-10T00:42:43.067Z,56.17
2019-05-10T00:45:16.044Z,54.03
2019-05-10T00:47:47.936Z,57.17
2019-05-10T00:50:19.856Z,62.00
2019-05-10T00:52:52.810Z,70.20
2019-05-10T00:55:24.672Z,76.67
2019-05-10T00:57:56.529Z,72.40
2019-05-10T01:00:28.494Z,73.87
2019-05-10T01:03:00.276Z,73.83
2019-05-10T01:05:32.156Z,74.70
2019-05-10T01:08:03.948Z,67.13
2019-05-10T01:10:35.812Z,69.20
2019-05-10T01:13:07.620Z,67.43
2019-05-10T01:15:40.825Z,66.27
2019-05-10T01:18:12.712Z,68.93
2019-05-10T01:20:44.573Z,68.00
2019-05-10T01:23:16.387Z,70.03
2019-05-10T01:25:49.264Z,61.53
2019-05-10T01:28:21.045Z,63.07
2019-05-10T01:30:54.455Z,57.87
2019-05-10T01:33:26.339Z,54.23
2019-05-10T01:35:59.546Z,47.67
2019-05-10T01:38:31.361Z,54.60
2019-05-10T01:41:03.226Z,46.83
2019-05-10T01:43:35.221Z,44.10
2019-05-10T01:46:08.411Z,45.17
2019-05-10T01:48:41.556Z,42.77
2019-05-10T01:51:13.408Z,42.77
2019-05-10T01:53:45.271Z,43.20
2019-05-10T01:56:17.079Z,43.50
2019-05-10T01:58:49.195Z,43.60
2019-05-10T02:01:21.069Z,41.30
2019-05-10T02:03:52.941Z,39.87
2019-05-10T02:06:24.827Z,49.97
2019-05-10T02:08:56.677Z,55.90
2019-05-10T02:11:28.647Z,48.57
2019-05-10T02:14:00.547Z,38.73
2019-05-10T02:16:32.419Z,40.80
2019-05-10T02:19:04.268Z,42.70
2019-05-10T02:21:36.141Z,46.33
2019-05-10T02:24:08.028Z,36.80
2019-05-10T02:26:39.809Z,49.57
2019-05-10T02:29:12.678Z,59.83
2019-05-10T02:31:44.565Z,56.13
2019-05-10T02:34:18.536Z,65.57
2019-05-10T02:36:50.406Z,63.27
2019-05-10T02:39:22.296Z,70.73
2019-05-10T02:41:54.091Z,66.97
2019-05-10T02:44:25.984Z,60.03
2019-05-10T02:46:57.832Z,50.53
2019-05-10T02:49:29.811Z,44.00
2019-05-10T02:52:01.617Z,44.83
2019-05-10T02:54:33.496Z,42.87
2019-05-10T02:57:05.371Z,38.30
2019-05-10T02:59:37.238Z,36.70
2019-05-10T03:02:09.164Z,28.90
2019-05-10T03:04:41.042Z,23.27
2019-05-10T03:07:12.924Z,22.93
2019-05-10T03:09:47.513Z,24.93
2019-05-10T03:12:24.172Z,23.73
2019-05-10T03:14:57.492Z,18.13
2019-05-10T03:17:29.973Z,17.63
2019-05-10T03:20:01.965Z,18.60
2019-05-10T03:22:38.994Z,21.73
2019-05-10T03:25:10.969Z,23.23
2019-05-10T03:27:42.871Z,22.97
2019-05-10T03:30:15.784Z,22.87
2019-05-10T03:32:47.629Z,23.20
2019-05-10T03:35:19.770Z,21.40
2019-05-10T03:37:51.697Z,22.40
2019-05-10T03:40:23.560Z,19.30
2019-05-10T03:42:55.439Z,24.30
2019-05-10T03:45:27.229Z,20.50
2019-05-10T03:47:59.119Z,23.70
2019-05-10T03:50:31.010Z,22.60
2019-05-10T03:53:02.905Z,21.70
2019-05-10T03:55:34.814Z,20.43
2019-05-10T03:58:06.692Z,24.23
2019-05-10T04:00:38.506Z,24.57
2019-05-10T04:03:10.598Z,22.43
2019-05-10T04:05:42.619Z,24.40
2019-05-10T04:08:14.433Z,24.83
2019-05-10T04:10:46.287Z,22.27
2019-05-10T04:13:18.234Z,20.87
2019-05-10T04:15:50.238Z,24.20
2019-05-10T04:18:22.294Z,21.43
2019-05-10T04:20:55.171Z,24.03
2019-05-10T04:23:28.066Z,24.87
2019-05-10T04:25:59.930Z,21.63
2019-05-10T04:28:31.817Z,22.93
2019-05-10T04:31:03.766Z,22.07
2019-05-10T04:33:35.616Z,24.83
2019-05-10T04:36:12.010Z,23.30
2019-05-10T04:38:41.307Z,30.93
2019-05-10T04:41:13.629Z,28.47
2019-05-10T04:43:45.444Z,26.70
2019-05-10T04:46:17.326Z,32.37
2019-05-10T04:48:49.268Z,40.23
2019-05-10T04:51:21.116Z,27.10
2019-05-10T04:53:53.145Z,23.70
2019-05-10T04:56:25.151Z,24.17
2019-05-10T04:58:57.007Z,29.07
2019-05-10T05:01:28.813Z,24.63
2019-05-10T05:04:00.706Z,28.90
2019-05-10T05:06:32.900Z,32.43
2019-05-10T05:09:06.559Z,51.70
2019-05-10T05:11:38.499Z,23.30
2019-05-10T05:14:10.323Z,21.50
2019-05-10T05:16:42.120Z,21.10
2019-05-10T05:19:14.041Z,20.57
2019-05-10T05:21:45.910Z,48.60
2019-05-10T05:24:23.004Z,148.77
2019-05-10T05:26:51.397Z,65.13
2019-05-10T05:29:23.340Z,25.87
2019-05-10T05:32:01.442Z,24.17
2019-05-10T05:34:28.807Z,23.23
2019-05-10T05:37:02.057Z,22.47
2019-05-10T05:39:33.932Z,33.17
2019-05-10T05:42:05.739Z,25.27
2019-05-10T05:44:37.532Z,23.53
2019-05-10T05:47:09.411Z,21.53
2019-05-10T05:49:41.274Z,26.43
2019-05-10T05:52:13.061Z,25.23
2019-05-10T05:54:44.932Z,25.17
2019-05-10T05:57:16.726Z,27.43
2019-05-10T05:59:49.178Z,26.10
2019-05-10T06:02:21.157Z,21.30
2019-05-10T06:04:54.050Z,25.63
2019-05-10T06:07:31.245Z,27.93
2019-05-10T06:09:59.623Z,27.53
2019-05-10T06:12:31.462Z,26.67
2019-05-10T06:15:03.366Z,28.00
2019-05-10T06:17:35.330Z,26.50
2019-05-10T06:20:07.768Z,28.23
2019-05-10T06:22:45.619Z,30.90
2019-05-10T06:25:13.546Z,31.83
2019-05-10T06:27:45.441Z,31.37
2019-05-10T06:30:17.442Z,28.53
2019-05-10T06:32:53.370Z,35.77
2019-05-10T06:35:23.090Z,24.93
2019-05-10T06:37:54.955Z,26.60
2019-05-10T06:40:35.820Z,42.50
2019-05-10T06:43:00.327Z,36.40
2019-05-10T06:45:32.261Z,30.57
2019-05-10T06:48:04.130Z,69.93
2019-05-10T06:50:35.953Z,95.50
2019-05-10T06:53:10.810Z,68.93
2019-05-10T06:55:42.508Z,28.87
2019-05-10T06:58:14.404Z,31.60
2019-05-10T07:00:48.316Z,30.10
2019-05-10T07:03:20.776Z,28.53
2019-05-10T07:05:53.546Z,31.83
2019-05-10T07:08:25.423Z,30.17
2019-05-10T07:10:57.245Z,46.93
2019-05-10T07:13:29.124Z,37.73
2019-05-10T07:16:01.003Z,31.30
2019-05-10T07:18:32.879Z,35.03
2019-05-10T07:21:06.702Z,41.57
2019-05-10T07:23:39.149Z,37.57
2019-05-10T07:26:16.984Z,39.20
2019-05-10T07:28:45.387Z,39.57
2019-05-10T07:31:17.502Z,33.37
2019-05-10T07:33:49.309Z,39.70
2019-05-10T07:36:27.487Z,29.90
2019-05-10T07:38:56.918Z,39.60
2019-05-10T07:41:29.104Z,44.23
2019-05-10T07:44:08.035Z,40.27
2019-05-10T07:46:40.217Z,46.80
2019-05-10T07:49:08.498Z,41.63
2019-05-10T07:51:41.376Z,33.37
2019-05-10T07:54:13.235Z,40.83
2019-05-10T07:56:46.122Z,35.87
2019-05-10T07:59:22.005Z,33.93
2019-05-10T08:01:52.209Z,43.80
2019-05-10T08:04:28.984Z,36.03
2019-05-10T08:06:59.679Z,37.17
2019-05-10T08:09:31.774Z,38.47
2019-05-10T08:12:05.303Z,36.43
2019-05-10T08:14:39.386Z,34.93
2019-05-10T08:17:10.866Z,39.20
2019-05-10T08:19:43.716Z,38.50
2019-05-10T08:22:15.569Z,37.43
2019-05-10T08:24:52.702Z,37.67
2019-05-10T08:27:22.979Z,35.80
2019-05-10T08:30:17.967Z,36.63
2019-05-10T08:32:30.075Z,33.90
2019-05-10T08:35:05.094Z,33.40
2019-05-10T08:37:37.753Z,33.37
2019-05-10T08:40:09.376Z,34.97
2019-05-10T08:42:48.048Z,34.53
2019-05-10T08:45:14.998Z,32.77
2019-05-10T08:47:46.802Z,36.47
2019-05-10T08:50:34.474Z,34.57
2019-05-10T08:52:56.714Z,30.20
2019-05-10T08:55:25.849Z,30.10
2019-05-10T08:57:57.736Z,31.40
2019-05-10T09:00:48.932Z,32.80
2019-05-10T09:03:09.561Z,30.37
2019-05-10T09:05:39.793Z,34.73
2019-05-10T09:08:13.581Z,31.77
2019-05-10T09:10:43.874Z,29.67
2019-05-10T09:13:15.871Z,35.10
2019-05-10T09:15:51.916Z,27.97
2019-05-10T09:18:23.030Z,27.07
2019-05-10T09:21:02.623Z,22.23
2019-05-10T09:23:28.410Z,22.67
2019-05-10T09:26:03.629Z,23.07
2019-05-10T09:28:33.954Z,23.30
2019-05-10T09:31:17.048Z,24.10
2019-05-10T09:33:40.980Z,22.07
2019-05-10T09:36:12.895Z,19.53
2019-05-10T09:38:46.324Z,19.00
2019-05-10T09:41:19.346Z,18.97
2019-05-10T09:43:53.567Z,21.33
2019-05-10T09:46:24.819Z,16.57
2019-05-10T09:49:06.077Z,20.53
2019-05-10T09:51:30.944Z,22.30
2019-05-10T09:54:03.621Z,20.93
2019-05-10T09:56:39.486Z,22.50
2019-05-10T09:59:09.095Z,17.07
2019-05-10T10:01:40.967Z,18.87
2019-05-10T10:04:13.842Z,14.03
2019-05-10T10:06:48.343Z,11.87
2019-05-10T10:09:24.569Z,14.50
2019-05-10T10:12:00.808Z,10.63
2019-05-10T10:14:38.124Z,8.93
2019-05-10T10:17:04.035Z,8.17
2019-05-10T10:19:40.251Z,13.07
2019-05-10T10:22:11.074Z,8.43
2019-05-10T10:24:43.037Z,11.90
2019-05-10T10:27:17.065Z,14.13
2019-05-10T10:29:48.517Z,14.20
2019-05-10T10:32:24.608Z,11.83
2019-05-10T10:34:54.806Z,10.57
2019-05-10T10:37:29.102Z,11.87
2019-05-10T10:40:05.355Z,13.83
2019-05-10T10:42:38.043Z,12.50
2019-05-10T10:45:09.411Z,12.80
2019-05-10T10:47:42.622Z,10.90
2019-05-10T10:50:17.080Z,13.60
2019-05-10T10:52:48.404Z,10.00
2019-05-10T10:55:20.418Z,10.40
2019-05-10T10:57:53.481Z,11.97
2019-05-10T11:00:38.462Z,15.07
2019-05-10T11:03:09.078Z,12.87
2019-05-10T11:05:40.965Z,11.77
2019-05-10T11:08:12.813Z,11.23
2019-05-10T11:10:44.677Z,13.27
2019-05-10T11:13:23.779Z,15.70
2019-05-10T11:15:51.624Z,10.97
2019-05-10T11:18:23.946Z,11.27
2019-05-10T11:20:55.817Z,10.07
2019-05-10T11:23:34.066Z,12.20
2019-05-10T11:26:01.565Z,10.17
2019-05-10T11:28:38.541Z,11.73
2019-05-10T11:31:07.969Z,9.70
2019-05-10T11:33:41.554Z,9.87
2019-05-10T11:36:13.402Z,12.53
2019-05-10T11:38:47.070Z,10.70
2019-05-10T11:41:24.204Z,13.33
2019-05-10T11:43:57.938Z,8.00
2019-05-10T11:46:28.072Z,10.70
2019-05-10T11:49:01.787Z,12.40
2019-05-10T11:51:34.307Z,8.13
2019-05-10T11:54:06.746Z,7.67
2019-05-10T11:56:41.090Z,8.23
2019-05-10T11:59:16.502Z,9.40
2019-05-10T12:01:55.036Z,8.23
2019-05-10T12:04:35.659Z,8.73
2019-05-10T12:06:53.510Z,5.83
2019-05-10T12:09:25.626Z,5.63
2019-05-10T12:11:57.755Z,5.83
2019-05-10T12:14:29.728Z,6.23
2019-05-10T12:17:05.825Z,8.90
2019-05-10T12:19:44.516Z,11.50
2019-05-10T12:22:15.935Z,6.93
2019-05-10T12:25:00.510Z,8.00
2019-05-10T12:27:28.551Z,5.73
2019-05-10T12:29:59.531Z,10.47
2019-05-10T12:32:32.066Z,8.03
2019-05-10T12:35:01.493Z,9.13
2019-05-10T12:37:34.534Z,5.10
2019-05-10T12:40:11.978Z,5.33
2019-05-10T12:42:41.821Z,13.37
2019-05-10T12:45:13.726Z,5.60
2019-05-10T12:47:45.961Z,9.43
2019-05-10T12:50:18.541Z,8.30
2019-05-10T12:53:03.810Z,5.20
2019-05-10T12:55:24.333Z,4.30
2019-05-10T12:57:56.293Z,5.50
2019-05-10T13:00:28.165Z,5.47
2019-05-10T13:03:12.376Z,3.80
2019-05-10T13:05:34.320Z,10.63
2019-05-10T13:08:08.956Z,4.30
2019-05-10T13:10:43.288Z,6.23
2019-05-10T13:13:17.491Z,4.27
2019-05-10T13:15:48.651Z,5.03
2019-05-10T13:18:23.089Z,7.87
2019-05-10T13:20:54.342Z,8.23
2019-05-10T13:23:26.258Z,18.23
2019-05-10T13:25:58.206Z,4.27
2019-05-10T13:28:30.148Z,6.20
2019-05-10T13:31:05.534Z,6.23
2019-05-10T13:33:41.797Z,4.33
2019-05-10T13:36:09.318Z,5.33
2019-05-10T13:38:43.848Z,7.47
2019-05-10T13:41:18.052Z,5.53
2019-05-10T13:43:49.409Z,8.40
2019-05-10T13:46:21.692Z,5.80
2019-05-10T13:48:53.584Z,6.00
2019-05-10T13:51:26.464Z,4.07
2019-05-10T13:53:58.999Z,3.43
2019-05-10T13:56:31.876Z,4.10
2019-05-10T13:59:15.756Z,3.97
2019-05-10T14:01:37.289Z,7.30
2019-05-10T14:04:09.159Z,3.87
2019-05-10T14:06:41.038Z,8.17
2019-05-10T14:09:12.850Z,6.13
2019-05-10T14:11:47.002Z,4.23
2019-05-10T14:14:20.374Z,4.83
2019-05-10T14:16:51.818Z,10.10
2019-05-10T14:19:25.607Z,6.27
2019-05-10T14:21:58.833Z,5.83
2019-05-10T14:24:30.978Z,7.67
2019-05-10T14:27:02.839Z,6.00
2019-05-10T14:29:36.911Z,8.30
2019-05-10T14:32:09.775Z,3.87
2019-05-10T14:34:44.503Z,6.67
2019-05-10T14:37:19.977Z,6.87
2019-05-10T14:39:53.393Z,6.40
2019-05-10T14:42:30.919Z,3.10
2019-05-10T14:44:58.876Z,3.40
2019-05-10T14:47:30.743Z,3.77
2019-05-10T14:50:02.539Z,4.80
2019-05-10T14:52:34.392Z,3.53
2019-05-10T14:55:07.000Z,5.53
2019-05-10T14:57:38.883Z,3.90
2019-05-10T15:00:10.816Z,4.17
2019-05-10T15:02:43.674Z,9.80
2019-05-10T15:05:18.002Z,1.93
2019-05-10T15:07:51.212Z,0.90
2019-05-10T15:10:22.739Z,1.63
2019-05-10T15:12:54.614Z,3.20
2019-05-10T15:15:31.251Z,2.10
2019-05-10T15:18:01.911Z,4.40
2019-05-10T15:20:35.802Z,2.97
2019-05-10T15:23:07.167Z,3.42
2019-05-10T15:25:55.432Z,4.73
2019-05-10T15:28:12.557Z,2.97
2019-05-10T15:30:45.812Z,5.30
2019-05-10T15:33:18.037Z,3.43
2019-05-10T15:35:51.724Z,5.53
2019-05-10T15:38:23.514Z,3.87
2019-05-10T15:40:55.390Z,5.33
2019-05-10T15:43:27.261Z,36.07
2019-05-10T15:45:59.228Z,2.27
2019-05-10T15:48:31.022Z,4.67
2019-05-10T15:51:02.835Z,2.73
2019-05-10T15:53:34.699Z,0.63
2019-05-10T15:56:06.526Z,0.90
2019-05-10T15:58:42.064Z,8.57
2019-05-10T16:01:14.407Z,2.53
2019-05-10T16:03:45.579Z,3.37
2019-05-10T16:06:17.423Z,2.97
2019-05-10T16:08:49.316Z,1.83
2019-05-10T16:11:21.198Z,25.93
2019-05-10T16:13:54.870Z,10.00
2019-05-10T16:16:36.984Z,16.33
2019-05-10T16:19:12.906Z,15.60
2019-05-10T16:21:46.758Z,12.07
2019-05-10T16:24:24.930Z,14.03
2019-05-10T16:26:54.654Z,15.77
2019-05-10T16:29:24.141Z,16.00
2019-05-10T16:31:56.456Z,7.00
2019-05-10T16:34:32.238Z,21.87
2019-05-10T16:37:02.056Z,22.87
2019-05-10T16:39:34.220Z,31.37
2019-05-10T16:42:06.416Z,34.80
2019-05-10T16:44:38.468Z,21.77
2019-05-10T16:47:10.453Z,14.00
2019-05-10T16:49:47.612Z,9.77
2019-05-10T16:52:26.012Z,6.27
2019-05-10T16:54:57.747Z,4.37
2019-05-10T16:57:31.903Z,9.50
2019-05-10T17:00:08.242Z,5.70
2019-05-10T17:02:41.861Z,12.00
2019-05-10T17:05:15.076Z,5.53
2019-05-10T17:07:43.927Z,6.63
2019-05-10T17:10:15.716Z,6.77
2019-05-10T17:12:47.921Z,9.90
2019-05-10T17:15:19.864Z,15.87
2019-05-10T17:17:51.816Z,6.23
2019-05-10T17:20:23.765Z,8.17
2019-05-10T17:23:08.173Z,49.73
2019-05-10T17:25:29.306Z,73.27
2019-05-10T17:28:02.124Z,23.30
2019-05-10T17:30:36.588Z,17.57
2019-05-10T17:33:10.899Z,10.07
2019-05-10T17:35:44.699Z,11.77
2019-05-10T17:38:19.681Z,11.47
2019-05-10T17:40:53.674Z,10.97
2019-05-10T17:43:26.037Z,58.10
2019-05-10T17:45:58.138Z,9.37
2019-05-10T17:48:30.058Z,9.33
2019-05-10T17:51:02.101Z,13.80
2019-05-10T17:53:34.109Z,8.47
2019-05-10T17:56:05.976Z,8.43
2019-05-10T17:58:38.827Z,6.57
2019-05-10T18:01:12.202Z,6.40
2019-05-10T18:03:44.548Z,8.27
2019-05-10T18:06:24.049Z,9.43
2019-05-10T18:08:49.923Z,10.73
2019-05-10T18:11:22.078Z,11.90
2019-05-10T18:13:54.029Z,10.83
2019-05-10T18:16:25.837Z,13.50
2019-05-10T18:18:57.799Z,16.07
2019-05-10T18:21:29.669Z,13.33
2019-05-10T18:24:01.668Z,14.60
2019-05-10T18:26:34.208Z,16.70
2019-05-10T18:29:07.072Z,18.57
2019-05-10T18:31:40.618Z,17.07
2019-05-10T18:34:14.404Z,18.50
2019-05-10T18:36:51.597Z,23.73
2019-05-10T18:39:19.878Z,105.90
2019-05-10T18:41:51.779Z,147.37
2019-05-10T18:44:23.674Z,114.17
2019-05-10T18:46:55.700Z,111.70
2019-05-10T18:49:27.588Z,21.77
2019-05-10T18:52:06.335Z,40.90
2019-05-10T18:54:32.978Z,29.23
2019-05-10T18:57:11.574Z,23.80
2019-05-10T18:59:45.339Z,14.23
2019-05-10T19:02:17.779Z,15.27
2019-05-10T19:04:52.207Z,71.47
2019-05-10T19:07:22.470Z,199.43
2019-05-10T19:09:54.395Z,36.57
2019-05-10T19:12:26.486Z,26.67
2019-05-10T19:15:02.369Z,26.00
2019-05-10T19:17:32.318Z,26.30
2019-05-10T19:20:09.344Z,16.20
2019-05-10T19:22:41.364Z,15.70
2019-05-10T19:25:14.054Z,14.50
2019-05-10T19:27:50.535Z,11.63
2019-05-10T19:30:20.618Z,10.90
2019-05-10T19:32:56.474Z,8.80
2019-05-10T19:35:34.869Z,9.47
2019-05-10T19:38:05.567Z,10.70
2019-05-10T19:40:38.705Z,14.97
2019-05-10T19:43:15.143Z,15.50
2019-05-10T19:45:44.644Z,12.70
2019-05-10T19:48:16.550Z,15.33
2019-05-10T19:50:48.449Z,12.27
2019-05-10T19:53:20.342Z,12.10
2019-05-10T19:55:57.302Z,13.40
2019-05-10T19:58:26.461Z,16.17
2019-05-10T20:00:59.485Z,16.13
2019-05-10T20:03:31.438Z,14.67
2019-05-10T20:06:03.435Z,17.60
2019-05-10T20:08:35.593Z,13.43
2019-05-10T20:11:07.482Z,13.13
2019-05-10T20:13:39.407Z,15.27
2019-05-10T20:16:11.286Z,13.43
2019-05-10T20:18:43.090Z,15.43
2019-05-10T20:21:15.014Z,16.33
2019-05-10T20:23:46.922Z,18.13
2019-05-10T20:26:20.384Z,23.70
2019-05-10T20:28:52.931Z,22.70
2019-05-10T20:31:24.954Z,26.47
2019-05-10T20:33:56.922Z,23.90
2019-05-10T20:36:28.811Z,21.63
2019-05-10T20:39:01.067Z,27.47
2019-05-10T20:41:34.681Z,25.97
2019-05-10T20:44:08.204Z,22.17
2019-05-10T20:46:40.873Z,24.93
2019-05-10T20:49:13.658Z,20.83
2019-05-10T20:51:45.570Z,24.87
2019-05-10T20:54:17.449Z,23.60
2019-05-10T20:56:49.354Z,29.90
2019-05-10T20:59:21.720Z,25.97
2019-05-10T21:01:54.017Z,28.10
2019-05-10T21:04:25.968Z,19.97
2019-05-10T21:06:59.084Z,20.63
2019-05-10T21:09:30.980Z,21.03
2019-05-10T21:12:02.884Z,29.63
2019-05-10T21:14:34.765Z,24.47
2019-05-10T21:17:08.632Z,30.30
2019-05-10T21:19:42.374Z,26.17
2019-05-10T21:22:15.864Z,29.50
2019-05-10T21:24:47.806Z,33.90
2019-05-10T21:27:20.723Z,27.40
2019-05-10T21:29:54.540Z,24.43
2019-05-10T21:32:26.417Z,25.67
2019-05-10T21:34:58.298Z,25.23
2019-05-10T21:37:30.187Z,28.80
2019-05-10T21:40:02.056Z,33.60
2019-05-10T21:42:33.929Z,41.57
2019-05-10T21:45:05.835Z,36.13
2019-05-10T21:47:50.572Z,26.33
2019-05-10T21:50:11.298Z,24.77
2019-05-10T21:52:43.274Z,28.10
2019-05-10T21:55:15.148Z,21.70
2019-05-10T21:57:47.046Z,24.87
2019-05-10T22:00:20.780Z,20.87
2019-05-10T22:02:54.468Z,20.90
2019-05-10T22:05:26.400Z,22.40
2019-05-10T22:07:58.427Z,24.53
2019-05-10T22:10:30.301Z,23.57
2019-05-10T22:13:02.185Z,25.43
2019-05-10T22:15:34.073Z,18.63
2019-05-10T22:18:05.983Z,17.23
2019-05-10T22:20:37.838Z,18.73
2019-05-10T22:23:09.958Z,17.13
2019-05-10T22:25:41.767Z,19.03
2019-05-10T22:28:13.671Z,19.10
2019-05-10T22:30:45.656Z,24.33
2019-05-10T22:33:17.471Z,21.87
2019-05-10T22:35:49.345Z,14.67
2019-05-10T22:38:21.248Z,16.00
2019-05-10T22:40:53.369Z,17.30
2019-05-10T22:43:25.405Z,12.97
2019-05-10T22:45:57.288Z,13.47
2019-05-10T22:48:29.176Z,15.27
2019-05-10T22:51:01.054Z,14.90
2019-05-10T22:53:32.936Z,16.43
2019-05-10T22:56:04.753Z,16.07
2019-05-10T22:58:36.640Z,26.43
2019-05-10T23:01:08.652Z,19.13
2019-05-10T23:03:40.943Z,19.50
2019-05-10T23:06:13.016Z,17.27
2019-05-10T23:08:44.918Z,13.87
2019-05-10T23:11:16.888Z,15.37
2019-05-10T23:13:48.882Z,11.13
2019-05-10T23:16:20.878Z,17.37
2019-05-10T23:18:52.786Z,14.60
2019-05-10T23:21:24.754Z,10.93
2019-05-10T23:23:56.640Z,15.87
2019-05-10T23:26:28.526Z,14.27
2019-05-10T23:29:00.423Z,13.20
2019-05-10T23:31:35.466Z,13.60
2019-05-10T23:34:05.964Z,14.87
2019-05-10T23:36:37.952Z,11.10
2019-05-10T23:39:09.833Z,12.53
2019-05-10T23:41:41.730Z,17.47
2019-05-10T23:44:13.589Z,11.77
2019-05-10T23:46:45.467Z,15.37
2019-05-10T23:49:17.369Z,20.27
2019-05-10T23:51:49.257Z,15.23
2019-05-10T23:54:21.162Z,20.03
2019-05-10T23:56:53.379Z,15.73
2019-05-10T23:59:25.391Z,16.20
